Mary Bennett — WDC4592 — position and weather

sailwx.info

Track history (hours):
 
Tides and Currents Weather Stations Pressure Air Temp Water Temp Dewpoint Dewpoint Depression Visibility Wind Speed Wind Dir Waves Ship Positions

Mary Bennett

Owner: Savannah Marine Services, Savannah, GA. More information available from US FCC via Universal Licensing System and Coast Guard Vessel Documentation Center.

Last reported at 2018-Feb-19 13:45 UTC. Time now 2018-Feb-19 20:15 UTC.
Position N 34°43' W 076°50'.

Length 21 m; draft 2.3 m.

Type: Tug. MMSI: 367027140.

Date/timePositionNaut miles runAvg speedWind from/ knotsBaromVisibWave heightAir tempDewpointWater temp
2018-Feb-19 13:45N 34°43' W 076°50'2 9.5
2018-Feb-19 13:30N 34°43' W 076°47'4 8.7
2018-Feb-19 13:00N 34°43' W 076°42'3 6.3
2018-Feb-19 12:30N 34°46' W 076°41'4 7.6
2018-Feb-19 12:00N 34°50' W 076°41'115 5.8
2018-Feb-18 16:06N 36°43' W 076°14'0 4.3
2018-Feb-18 16:00N 36°43' W 076°15'1 2.6
2018-Feb-18 15:30N 36°44' W 076°16'2 4.6
2018-Feb-18 15:00N 36°46' W 076°18'1 1.9
2018-Feb-18 14:31N 36°47' W 076°18'2 3.6
2018-Feb-18 14:01N 36°48' W 076°17'4 6.8
2018-Feb-18 13:28N 36°52' W 076°19'4 7.9
2018-Feb-18 13:00N 36°55' W 076°20'4 8.2
2018-Feb-18 12:30N 36°59' W 076°19'4 8.3
2018-Feb-18 11:59N 37°03' W 076°16'4 8.4
2018-Feb-18 11:29N 37°07' W 076°14'5 8.9
2018-Feb-18 10:58N 37°11' W 076°12'96 8.4
2018-Feb-17 23:36N 38°46' W 076°28'2 8.2
2018-Feb-17 23:24N 38°48' W 076°27'3 8.1
2018-Feb-17 23:00N 38°51' W 076°26'4 8.2
2018-Feb-17 22:29N 38°54' W 076°24'4 7.9
2018-Feb-17 22:00N 38°58' W 076°24'22 8.7
2018-Feb-17 19:27N 39°19' W 076°13'5 9.7
2018-Feb-17 18:59N 39°22' W 076°08'5 9.7
2018-Feb-17 18:30N 39°24' W 076°03'4 8.9
2018-Feb-17 18:00N 39°27' W 075°59'5 9.2
2018-Feb-17 17:30N 39°30' W 075°55'4 9.0
2018-Feb-17 17:01N 39°32' W 075°49'4 8.0
2018-Feb-17 16:30N 39°32' W 075°44'4 8.2
2018-Feb-17 16:00N 39°33' W 075°39'4 7.7
2018-Feb-17 15:31N 39°34' W 075°34'2 4.2
2018-Feb-17 15:00N 39°34' W 075°31'2 3.6
2018-Feb-17 14:30N 39°34' W 075°29'0 0.0
2018-Feb-17 14:00N 39°34' W 075°29'0 0.0
2018-Feb-17 13:30N 39°34' W 075°29'0 0.0
2018-Feb-17 13:00N 39°34' W 075°29'0 0.0
2018-Feb-17 12:31N 39°34' W 075°29'0 0.0
2018-Feb-17 12:00N 39°34' W 075°29'0 0.0
2018-Feb-17 11:24N 39°34' W 075°29'0 0.0
2018-Feb-17 11:00N 39°34' W 075°29'0 0.0
2018-Feb-17 10:29N 39°34' W 075°29'0 0.0
2018-Feb-17 09:59N 39°34' W 075°29'0 0.0
2018-Feb-17 09:30N 39°34' W 075°29'0 0.0
2018-Feb-17 09:00N 39°34' W 075°29'0 0.0
2018-Feb-17 08:30N 39°34' W 075°29'0 0.0
2018-Feb-17 08:01N 39°34' W 075°29'2 3.1
2018-Feb-17 07:30N 39°34' W 075°31'3 5.0
2018-Feb-17 07:00N 39°32' W 075°33'3 5.6
2018-Feb-17 06:31N 39°29' W 075°33'3 5.4
2018-Feb-17 05:58N 39°27' W 075°32'22 2.0
2018-Feb-16 18:52N 39°09' W 075°15'0 0.7
2018-Feb-16 18:29N 39°09' W 075°15'0 0.1
2018-Feb-16 18:00N 39°09' W 075°15'0 0.3
2018-Feb-16 17:31N 39°09' W 075°15'0 0.0
2018-Feb-16 17:00N 39°09' W 075°15'0 0.0
2018-Feb-16 16:30N 39°09' W 075°15'0 0.0
2018-Feb-16 16:00N 39°09' W 075°15'0 0.5
2018-Feb-16 15:30N 39°09' W 075°15'0 0.2
2018-Feb-16 15:00N 39°09' W 075°15'0 0.2
2018-Feb-16 14:30N 39°09' W 075°15'0 0.6
2018-Feb-16 14:00N 39°09' W 075°14'0 0.7
2018-Feb-16 13:31N 39°09' W 075°15'0 0.1
2018-Feb-16 13:00N 39°09' W 075°15'0 0.4
2018-Feb-16 12:30N 39°09' W 075°15'0 0.0
2018-Feb-16 12:00N 39°09' W 075°15'0 0.2
2018-Feb-16 11:29N 39°09' W 075°14'0 0.2
2018-Feb-16 11:00N 39°09' W 075°14'0 0.2
2018-Feb-16 10:30N 39°09' W 075°15'0 0.3
2018-Feb-16 10:00N 39°09' W 075°15'0 0.2
2018-Feb-16 08:07N 39°09' W 075°14'0 1.9
2018-Feb-16 08:00N 39°09' W 075°14'0 0.8
2018-Feb-16 07:29N 39°09' W 075°14'0 0.7
2018-Feb-16 06:50N 39°08' W 075°14'0 1.2
2018-Feb-16 06:30N 39°09' W 075°14'0 0.2
2018-Feb-16 05:49N 39°09' W 075°14'0 1.6
2018-Feb-16 05:30N 39°09' W 075°15'0 0.9
2018-Feb-16 05:00N 39°10' W 075°15'1 1.1
2018-Feb-16 04:17N 39°09' W 075°14'0 1.3
2018-Feb-16 04:01N 39°09' W 075°14'0 0.0
2018-Feb-16 03:30N 39°09' W 075°14'0 0.6
2018-Feb-16 02:59N 39°09' W 075°14'0 0.6
2018-Feb-16 02:23N 39°09' W 075°15'0 0.6
2018-Feb-16 02:00N 39°09' W 075°15'0 0.5
2018-Feb-16 01:21N 39°09' W 075°14'0 0.0
2018-Feb-15 23:04N 39°09' W 075°14'0 2.4
2018-Feb-15 23:00N 39°09' W 075°14'0 0.7
2018-Feb-15 22:30N 39°09' W 075°15'1 1.1
2018-Feb-15 22:00N 39°09' W 075°14'0 0.3
2018-Feb-15 21:30N 39°09' W 075°14'0 0.3
2018-Feb-15 21:00N 39°09' W 075°14'0 0.1
2018-Feb-15 20:30N 39°09' W 075°14'0 0.6
2018-Feb-15 20:00N 39°09' W 075°14'1 1.6
2018-Feb-15 19:29N 39°08' W 075°14'1 1.6
2018-Feb-15 19:00N 39°09' W 075°14'0 0.5
2018-Feb-15 18:30N 39°08' W 075°14'1 1.2
2018-Feb-15 18:00N 39°08' W 075°14'0 0.0
2018-Feb-15 17:29N 39°08' W 075°14'1 3.0
2018-Feb-15 17:00N 39°09' W 075°15'0 0.4
2018-Feb-15 16:06N 39°09' W 075°14'0 3.8
2018-Feb-15 16:00N 39°09' W 075°15'0 0.1
2018-Feb-15 15:14N 39°09' W 075°15'0 0.9
2018-Feb-15 14:59N 39°09' W 075°14'0 0.4
2018-Feb-15 14:19N 39°09' W 075°15'0 1.1
2018-Feb-15 13:56N 39°09' W 075°14'0 0.2
2018-Feb-15 13:30N 39°09' W 075°14'0 0.4
2018-Feb-15 13:00N 39°09' W 075°14'0 0.4
2018-Feb-15 12:30N 39°09' W 075°15'0 0.1
2018-Feb-15 12:01N 39°09' W 075°15'0 0.4
2018-Feb-15 11:25N 39°09' W 075°14'0 0.6
2018-Feb-15 10:56N 39°09' W 075°14'0 0.0
2018-Feb-15 10:26N 39°09' W 075°14'0 0.5
2018-Feb-15 09:59N 39°09' W 075°14'0 0.2
2018-Feb-15 09:31N 39°09' W 075°14'0 0.8
2018-Feb-15 09:01N 39°09' W 075°15'0 0.4
2018-Feb-15 08:28N 39°09' W 075°15'1 1.2
2018-Feb-15 07:57N 39°09' W 075°14'0 0.5
2018-Feb-15 07:24N 39°08' W 075°14'0 0.4
2018-Feb-15 06:57N 39°09' W 075°14'0 0.1
2018-Feb-15 06:30N 39°09' W 075°14'1 1.3
2018-Feb-15 06:00N 39°09' W 075°15'1 1.3
2018-Feb-15 05:30N 39°09' W 075°14'0 0.8
2018-Feb-15 04:56N 39°09' W 075°15'0 0.2
2018-Feb-15 04:31N 39°09' W 075°14'0 0.7
2018-Feb-15 04:00N 39°09' W 075°15'0 0.7
2018-Feb-15 03:30N 39°09' W 075°14'0 0.5
2018-Feb-15 03:00N 39°09' W 075°15'0 0.7
2018-Feb-15 02:30N 39°09' W 075°14'0 0.7
2018-Feb-15 02:00N 39°09' W 075°15'0 0.7
2018-Feb-15 01:29N 39°09' W 075°14'0 0.7
2018-Feb-15 00:59N 39°09' W 075°15'0 0.6
2018-Feb-15 00:29N 39°09' W 075°14'0 0.5
2018-Feb-14 23:59N 39°09' W 075°15'0 0.7
2018-Feb-14 23:26N 39°09' W 075°14'1 1.6
2018-Feb-14 22:50N 39°08' W 075°14'0 0.2
2018-Feb-14 22:24N 39°08' W 075°14'1 1.6
2018-Feb-14 22:00N 39°08' W 075°14'0 0.7
2018-Feb-14 21:18N 39°08' W 075°14'0 0.5
2018-Feb-14 20:59N 39°08' W 075°14'0 0.7
2018-Feb-14 20:29N 39°08' W 075°14'0 0.9
2018-Feb-14 19:59N 39°08' W 075°14'0 0.0
2018-Feb-14 19:26N 39°08' W 075°14'0 0.3
2018-Feb-14 19:00N 39°08' W 075°14'1 1.8
2018-Feb-14 18:30N 39°09' W 075°14'0 0.2
2018-Feb-14 17:56N 39°09' W 075°14'0 1.0
2018-Feb-14 17:30N 39°09' W 075°15'0 0.8
2018-Feb-14 16:55N 39°09' W 075°14'1 1.6
2018-Feb-14 16:30N 39°09' W 075°15'0 0.4
2018-Feb-14 16:00N 39°09' W 075°15'0 0.1
2018-Feb-14 15:30N 39°09' W 075°15'0 0.1
2018-Feb-14 15:00N 39°09' W 075°15'1 1.2
2018-Feb-14 14:31N 39°09' W 075°14'0 0.3
2018-Feb-14 14:00N 39°09' W 075°14'0 0.0
2018-Feb-14 13:30N 39°09' W 075°14'0 0.6
2018-Feb-14 13:00N 39°09' W 075°14'0 0.3
2018-Feb-14 12:29N 39°09' W 075°14'0 0.3
2018-Feb-14 11:57N 39°09' W 075°14'1 1.5
2018-Feb-14 11:30N 39°09' W 075°15'0 0.3
2018-Feb-14 11:00N 39°09' W 075°15'1 1.1
2018-Feb-14 10:29N 39°09' W 075°14'0 0.9
2018-Feb-14 09:58N 39°09' W 075°15'0 1.1
2018-Feb-14 09:30N 39°09' W 075°14'0 0.3
2018-Feb-14 08:56N 39°09' W 075°14'0 0.2
2018-Feb-14 08:30N 39°09' W 075°14'0 0.2
2018-Feb-14 07:58N 39°09' W 075°14'1 1.3
2018-Feb-14 07:31N 39°09' W 075°15'1 1.2
2018-Feb-14 06:58N 39°09' W 075°14'1 1.3
2018-Feb-14 06:30N 39°09' W 075°15'0 0.7
2018-Feb-14 06:00N 39°09' W 075°15'0 0.3
2018-Feb-14 05:26N 39°09' W 075°14'1 1.3
2018-Feb-14 05:00N 39°09' W 075°15'0 0.1
2018-Feb-14 04:31N 39°09' W 075°15'0 0.8
2018-Feb-14 03:57N 39°09' W 075°14'4 7.0
2018-Feb-14 03:26N 39°12' W 075°17'3 6.7
2018-Feb-14 03:00N 39°14' W 075°19'3 6.0
2018-Feb-14 02:30N 39°17' W 075°22'3 5.6
2018-Feb-14 02:00N 39°19' W 075°24'3 5.2
2018-Feb-14 01:30N 39°21' W 075°26'2 4.3
2018-Feb-14 01:00N 39°22' W 075°28'2 4.4
2018-Feb-14 00:30N 39°24' W 075°30'2 4.2
2018-Feb-14 00:01N 39°25' W 075°32'2 4.8
2018-Feb-13 23:31N 39°27' W 075°34'3 5.3
2018-Feb-13 23:00N 39°30' W 075°33'3 5.3
2018-Feb-13 22:30N 39°33' W 075°32'2 4.6
2018-Feb-13 22:00N 39°34' W 075°30'1 1.6
2018-Feb-13 21:30N 39°34' W 075°29'0 0.0
2018-Feb-13 21:00N 39°34' W 075°29'0 0.0
2018-Feb-13 20:29N 39°34' W 075°29'0 0.0
2018-Feb-13 20:01N 39°34' W 075°29'0 0.0
2018-Feb-13 19:30N 39°34' W 075°29'0 0.0
2018-Feb-13 19:01N 39°34' W 075°29'0 0.0
2018-Feb-13 18:31N 39°34' W 075°29'0 0.0
2018-Feb-13 18:00N 39°34' W 075°29'0 0.0
2018-Feb-13 17:31N 39°34' W 075°29'0 0.0
2018-Feb-13 17:01N 39°34' W 075°29'0 0.0
2018-Feb-13 16:30N 39°34' W 075°29'0 0.0
2018-Feb-13 16:00N 39°34' W 075°29'0 0.0
2018-Feb-13 15:30N 39°34' W 075°29'0 0.0
2018-Feb-13 15:00N 39°34' W 075°29'0 0.0
2018-Feb-13 14:30N 39°34' W 075°29'0 0.0
2018-Feb-13 14:00N 39°34' W 075°29'0 0.0
2018-Feb-13 13:31N 39°34' W 075°29'0 0.0
2018-Feb-13 13:00N 39°34' W 075°29'0 0.0
2018-Feb-13 12:30N 39°34' W 075°29'0 0.0
2018-Feb-13 12:00N 39°34' W 075°29'0 0.0
2018-Feb-13 11:30N 39°34' W 075°29'0 0.0
2018-Feb-13 11:01N 39°34' W 075°29'0 0.0
2018-Feb-13 10:30N 39°34' W 075°29'0 0.0
2018-Feb-13 10:00N 39°34' W 075°29'0 0.0
2018-Feb-13 09:30N 39°34' W 075°29'0 0.0
2018-Feb-13 09:01N 39°34' W 075°29'0 0.0
2018-Feb-13 08:30N 39°34' W 075°29'0 0.0
2018-Feb-13 08:00N 39°34' W 075°29'0 0.0
2018-Feb-13 07:30N 39°34' W 075°29'0 0.0
2018-Feb-13 07:00N 39°34' W 075°29'0 0.0
2018-Feb-13 06:30N 39°34' W 075°29'0 0.0
2018-Feb-13 06:00N 39°34' W 075°29'0 0.0
2018-Feb-13 05:30N 39°34' W 075°29'0 0.0
2018-Feb-13 05:00N 39°34' W 075°29'0 0.0
2018-Feb-13 04:30N 39°34' W 075°29'0 0.0
2018-Feb-13 03:59N 39°34' W 075°29'0 0.0
2018-Feb-13 03:30N 39°34' W 075°29'0 0.0
2018-Feb-13 03:00N 39°34' W 075°29'0 0.5
2018-Feb-13 02:30N 39°35' W 075°29'0 0.0
2018-Feb-13 02:00N 39°35' W 075°29'0 0.0
2018-Feb-13 01:30N 39°35' W 075°29'0 0.0
2018-Feb-13 01:00N 39°35' W 075°29'0 0.0
2018-Feb-13 00:31N 39°35' W 075°29'0 0.0
2018-Feb-13 00:00N 39°35' W 075°29'0 0.0
2018-Feb-12 23:31N 39°35' W 075°29'0 0.0
2018-Feb-12 23:01N 39°35' W 075°29'2 3.7
2018-Feb-12 22:30N 39°34' W 075°31'3 5.4
2018-Feb-12 22:00N 39°36' W 075°34'5 9.4
2018-Feb-12 21:30N 39°40' W 075°32'611.1
2018-Feb-12 21:00N 39°45' W 075°29'510.0
2018-Feb-12 20:30N 39°49' W 075°24'510.1
2018-Feb-12 20:01N 39°51' W 075°18'510.4
2018-Feb-12 19:30N 39°53' W 075°12'1 1.3
2018-Feb-12 19:01N 39°53' W 075°12'0 0.0
2018-Feb-12 18:30N 39°53' W 075°12'0 0.0
2018-Feb-12 18:00N 39°53' W 075°12'0 0.0
2018-Feb-12 17:30N 39°53' W 075°12'0 0.0
2018-Feb-12 17:00N 39°53' W 075°12'0 0.0
2018-Feb-12 16:31N 39°53' W 075°12'0 0.0
2018-Feb-12 16:00N 39°53' W 075°12'0 0.0
2018-Feb-12 15:30N 39°53' W 075°12'0 0.0
2018-Feb-12 15:00N 39°53' W 075°12'0 0.0
2018-Feb-12 14:31N 39°53' W 075°12'0 0.0
2018-Feb-12 14:01N 39°53' W 075°12'0 0.0
2018-Feb-12 13:31N 39°53' W 075°12'0 0.0
2018-Feb-12 13:00N 39°53' W 075°12'0 0.0
2018-Feb-12 12:31N 39°53' W 075°12'2 3.3
2018-Feb-12 12:01N 39°52' W 075°13'4 9.0
2018-Feb-12 11:31N 39°51' W 075°18'4 8.4
2018-Feb-12 11:01N 39°49' W 075°23'4 7.2
2018-Feb-12 10:31N 39°47' W 075°27'4 8.3
2018-Feb-12 10:00N 39°43' W 075°30'4 7.9
2018-Feb-12 09:30N 39°40' W 075°32'4 7.3
2018-Feb-12 09:00N 39°37' W 075°34'4 7.6
2018-Feb-12 08:30N 39°33' W 075°33'3 5.5
2018-Feb-12 08:00N 39°34' W 075°29'0 0.7
2018-Feb-12 07:30N 39°35' W 075°29'0 0.5
2018-Feb-12 07:00N 39°34' W 075°29'0 0.0
2018-Feb-11 15:12N 39°34' W 075°29'0 0.0
2018-Feb-11 15:00N 39°34' W 075°29'0 0.0
2018-Feb-11 14:30N 39°34' W 075°29'0 0.0
2018-Feb-11 14:00N 39°34' W 075°29'0 0.0
2018-Feb-11 13:30N 39°34' W 075°29'0 0.0
2018-Feb-11 13:01N 39°34' W 075°29'0 0.0
2018-Feb-11 12:30N 39°34' W 075°29'0 0.0
2018-Feb-11 12:00N 39°34' W 075°29'0 0.0
2018-Feb-11 11:30N 39°34' W 075°29'0 0.0
2018-Feb-11 11:01N 39°34' W 075°29'0 0.0
2018-Feb-11 10:30N 39°34' W 075°29'0 0.0
2018-Feb-11 10:00N 39°34' W 075°29'0 0.0
2018-Feb-11 09:30N 39°34' W 075°29'0 0.0
2018-Feb-11 09:01N 39°34' W 075°29'0 0.0
2018-Feb-11 08:30N 39°34' W 075°29'0 0.0
2018-Feb-11 08:00N 39°34' W 075°29'0 0.0
2018-Feb-11 07:30N 39°34' W 075°29'0 0.0
2018-Feb-11 07:00N 39°34' W 075°29'0 0.0
2018-Feb-11 06:30N 39°34' W 075°29'0 0.0
2018-Feb-11 06:00N 39°34' W 075°29'0 0.0
2018-Feb-11 05:31N 39°34' W 075°29'0 0.0
2018-Feb-11 05:01N 39°34' W 075°29'0 0.0
2018-Feb-11 04:30N 39°34' W 075°29'0 0.0
2018-Feb-11 04:00N 39°34' W 075°29'0 0.0
2018-Feb-11 03:30N 39°34' W 075°29'0 0.0
2018-Feb-11 03:00N 39°34' W 075°29'0 0.0
2018-Feb-11 02:30N 39°34' W 075°29'0 0.0
2018-Feb-11 02:00N 39°34' W 075°29'2 3.5
2018-Feb-11 01:30N 39°34' W 075°31'3 6.9
2018-Feb-11 01:00N 39°31' W 075°33'4 7.2
2018-Feb-11 00:30N 39°27' W 075°33'4 7.6
2018-Feb-11 00:00N 39°24' W 075°30'4 7.6
2018-Feb-10 23:30N 39°21' W 075°26'4 7.3
2018-Feb-10 23:00N 39°18' W 075°24'4 7.2
2018-Feb-10 22:30N 39°16' W 075°20'4 7.1
2018-Feb-10 21:59N 39°13' W 075°17'3 7.0
2018-Feb-10 21:31N 39°10' W 075°15'1 2.2
2018-Feb-10 21:01N 39°09' W 075°14'0 0.5
2018-Feb-10 20:30N 39°09' W 075°14'0 0.4
2018-Feb-10 20:00N 39°09' W 075°14'0 0.8
2018-Feb-10 19:31N 39°09' W 075°15'0 0.6
2018-Feb-10 18:59N 39°09' W 075°14'0 0.7
2018-Feb-10 18:30N 39°09' W 075°15'0 0.3
2018-Feb-10 17:55N 39°09' W 075°14'0 0.6
2018-Feb-10 17:23N 39°09' W 075°14'0 0.2
2018-Feb-10 16:53N 39°08' W 075°14'0 0.8
2018-Feb-10 16:23N 39°09' W 075°14'1 1.4
2018-Feb-10 15:54N 39°08' W 075°14'1 1.5
2018-Feb-10 15:30N 39°09' W 075°14'1 2.4
2018-Feb-10 14:59N 39°10' W 075°15'2 5.2
2018-Feb-10 14:30N 39°12' W 075°17'1 1.3
2018-Feb-10 14:00N 39°13' W 075°17'0 0.0
2018-Feb-10 13:30N 39°12' W 075°17'0 0.0
2018-Feb-10 13:00N 39°12' W 075°17'0 0.0
2018-Feb-10 12:30N 39°12' W 075°17'0 0.6
2018-Feb-10 12:01N 39°13' W 075°17'0 0.8
2018-Feb-10 11:30N 39°13' W 075°17'1 1.1
2018-Feb-10 11:01N 39°13' W 075°17'0 0.0
2018-Feb-10 10:30N 39°13' W 075°17'0 0.6
2018-Feb-10 10:00N 39°13' W 075°17'0 0.1
2018-Feb-10 09:29N 39°13' W 075°17'0 0.4
2018-Feb-10 09:00N 39°13' W 075°18'0 0.3
2018-Feb-10 08:29N 39°13' W 075°18'0 1.0
2018-Feb-10 08:00N 39°13' W 075°17'0 0.1
2018-Feb-10 07:29N 39°13' W 075°17'0 0.7
2018-Feb-10 07:00N 39°13' W 075°17'0 0.1
2018-Feb-10 06:30N 39°13' W 075°18'0 0.8
2018-Feb-10 06:00N 39°13' W 075°17'0 0.2
2018-Feb-10 05:29N 39°13' W 075°17'0 0.9
2018-Feb-10 05:00N 39°13' W 075°18'0 0.3
2018-Feb-10 04:31N 39°13' W 075°18'1 1.4
2018-Feb-10 04:01N 39°12' W 075°17'0 0.9
2018-Feb-10 03:30N 39°13' W 075°17'0 0.2
2018-Feb-10 03:00N 39°13' W 075°17'0 0.2
2018-Feb-10 02:30N 39°13' W 075°17'0 0.4
2018-Feb-10 02:00N 39°13' W 075°18'0 0.1
2018-Feb-10 01:31N 39°13' W 075°18'0 0.5
2018-Feb-10 01:00N 39°13' W 075°17'0 0.4
2018-Feb-10 00:30N 39°13' W 075°17'0 0.6
2018-Feb-10 00:00N 39°13' W 075°17'0 0.8
2018-Feb-09 23:30N 39°13' W 075°18'1 1.3
2018-Feb-09 23:00N 39°12' W 075°17'1 3.4
2018-Feb-09 22:46N 39°13' W 075°18'0 0.3
2018-Feb-09 21:01N 39°14' W 075°18'1 0.4
2018-Feb-09 18:00N 39°12' W 075°17'1 1.3
2018-Feb-09 17:30N 39°13' W 075°18'1 1.0
2018-Feb-09 17:01N 39°13' W 075°18'1 1.5
2018-Feb-09 16:30N 39°13' W 075°18'1 0.5
2018-Feb-09 15:30N 39°13' W 075°18'1 0.7
2018-Feb-09 14:30N 39°13' W 075°17'0 0.0
2018-Feb-09 14:00N 39°13' W 075°17'  
Track history (hours):
 
Tides and Currents Weather Stations Pressure Air Temp Water Temp Dewpoint Dewpoint Depression Visibility Wind Speed Wind Dir Waves Ship Positions

Mary Bennett

Owner: Savannah Marine Services, Savannah, GA. More information available from US FCC via Universal Licensing System and Coast Guard Vessel Documentation Center.

Last reported at 2018-Feb-19 13:45 UTC. Time now 2018-Feb-19 20:15 UTC.
Position N 34°43' W 076°50'.

Length 21 m; draft 2.3 m.

Type: Tug. MMSI: 367027140.

Date/timePositionNaut miles runAvg speedWind from/ knotsBaromVisibWave heightAir tempDewpointWater temp
2018-Feb-19 13:45N 34°43' W 076°50'2 9.5
2018-Feb-19 13:30N 34°43' W 076°47'4 8.7
2018-Feb-19 13:00N 34°43' W 076°42'3 6.3
2018-Feb-19 12:30N 34°46' W 076°41'4 7.6
2018-Feb-19 12:00N 34°50' W 076°41'115 5.8
2018-Feb-18 16:06N 36°43' W 076°14'0 4.3
2018-Feb-18 16:00N 36°43' W 076°15'1 2.6
2018-Feb-18 15:30N 36°44' W 076°16'2 4.6
2018-Feb-18 15:00N 36°46' W 076°18'1 1.9
2018-Feb-18 14:31N 36°47' W 076°18'2 3.6
2018-Feb-18 14:01N 36°48' W 076°17'4 6.8
2018-Feb-18 13:28N 36°52' W 076°19'4 7.9
2018-Feb-18 13:00N 36°55' W 076°20'4 8.2
2018-Feb-18 12:30N 36°59' W 076°19'4 8.3
2018-Feb-18 11:59N 37°03' W 076°16'4 8.4
2018-Feb-18 11:29N 37°07' W 076°14'5 8.9
2018-Feb-18 10:58N 37°11' W 076°12'96 8.4
2018-Feb-17 23:36N 38°46' W 076°28'2 8.2
2018-Feb-17 23:24N 38°48' W 076°27'3 8.1
2018-Feb-17 23:00N 38°51' W 076°26'4 8.2
2018-Feb-17 22:29N 38°54' W 076°24'4 7.9
2018-Feb-17 22:00N 38°58' W 076°24'22 8.7
2018-Feb-17 19:27N 39°19' W 076°13'5 9.7
2018-Feb-17 18:59N 39°22' W 076°08'5 9.7
2018-Feb-17 18:30N 39°24' W 076°03'4 8.9
2018-Feb-17 18:00N 39°27' W 075°59'5 9.2
2018-Feb-17 17:30N 39°30' W 075°55'4 9.0
2018-Feb-17 17:01N 39°32' W 075°49'4 8.0
2018-Feb-17 16:30N 39°32' W 075°44'4 8.2
2018-Feb-17 16:00N 39°33' W 075°39'4 7.7
2018-Feb-17 15:31N 39°34' W 075°34'2 4.2
2018-Feb-17 15:00N 39°34' W 075°31'2 3.6
2018-Feb-17 14:30N 39°34' W 075°29'0 0.0
2018-Feb-17 14:00N 39°34' W 075°29'0 0.0
2018-Feb-17 13:30N 39°34' W 075°29'0 0.0
2018-Feb-17 13:00N 39°34' W 075°29'0 0.0
2018-Feb-17 12:31N 39°34' W 075°29'0 0.0
2018-Feb-17 12:00N 39°34' W 075°29'0 0.0
2018-Feb-17 11:24N 39°34' W 075°29'0 0.0
2018-Feb-17 11:00N 39°34' W 075°29'0 0.0
2018-Feb-17 10:29N 39°34' W 075°29'0 0.0
2018-Feb-17 09:59N 39°34' W 075°29'0 0.0
2018-Feb-17 09:30N 39°34' W 075°29'0 0.0
2018-Feb-17 09:00N 39°34' W 075°29'0 0.0
2018-Feb-17 08:30N 39°34' W 075°29'0 0.0
2018-Feb-17 08:01N 39°34' W 075°29'2 3.1
2018-Feb-17 07:30N 39°34' W 075°31'3 5.0
2018-Feb-17 07:00N 39°32' W 075°33'3 5.6
2018-Feb-17 06:31N 39°29' W 075°33'3 5.4
2018-Feb-17 05:58N 39°27' W 075°32'22 2.0
2018-Feb-16 18:52N 39°09' W 075°15'0 0.7
2018-Feb-16 18:29N 39°09' W 075°15'0 0.1
2018-Feb-16 18:00N 39°09' W 075°15'0 0.3
2018-Feb-16 17:31N 39°09' W 075°15'0 0.0
2018-Feb-16 17:00N 39°09' W 075°15'0 0.0
2018-Feb-16 16:30N 39°09' W 075°15'0 0.0
2018-Feb-16 16:00N 39°09' W 075°15'0 0.5
2018-Feb-16 15:30N 39°09' W 075°15'0 0.2
2018-Feb-16 15:00N 39°09' W 075°15'0 0.2
2018-Feb-16 14:30N 39°09' W 075°15'0 0.6
2018-Feb-16 14:00N 39°09' W 075°14'0 0.7
2018-Feb-16 13:31N 39°09' W 075°15'0 0.1
2018-Feb-16 13:00N 39°09' W 075°15'0 0.4
2018-Feb-16 12:30N 39°09' W 075°15'0 0.0
2018-Feb-16 12:00N 39°09' W 075°15'0 0.2
2018-Feb-16 11:29N 39°09' W 075°14'0 0.2
2018-Feb-16 11:00N 39°09' W 075°14'0 0.2
2018-Feb-16 10:30N 39°09' W 075°15'0 0.3
2018-Feb-16 10:00N 39°09' W 075°15'0 0.2
2018-Feb-16 08:07N 39°09' W 075°14'0 1.9
2018-Feb-16 08:00N 39°09' W 075°14'0 0.8
2018-Feb-16 07:29N 39°09' W 075°14'0 0.7
2018-Feb-16 06:50N 39°08' W 075°14'0 1.2
2018-Feb-16 06:30N 39°09' W 075°14'0 0.2
2018-Feb-16 05:49N 39°09' W 075°14'0 1.6
2018-Feb-16 05:30N 39°09' W 075°15'0 0.9
2018-Feb-16 05:00N 39°10' W 075°15'1 1.1
2018-Feb-16 04:17N 39°09' W 075°14'0 1.3
2018-Feb-16 04:01N 39°09' W 075°14'0 0.0
2018-Feb-16 03:30N 39°09' W 075°14'0 0.6
2018-Feb-16 02:59N 39°09' W 075°14'0 0.6
2018-Feb-16 02:23N 39°09' W 075°15'0 0.6
2018-Feb-16 02:00N 39°09' W 075°15'0 0.5
2018-Feb-16 01:21N 39°09' W 075°14'0 0.0
2018-Feb-15 23:04N 39°09' W 075°14'0 2.4
2018-Feb-15 23:00N 39°09' W 075°14'0 0.7
2018-Feb-15 22:30N 39°09' W 075°15'1 1.1
2018-Feb-15 22:00N 39°09' W 075°14'0 0.3
2018-Feb-15 21:30N 39°09' W 075°14'0 0.3
2018-Feb-15 21:00N 39°09' W 075°14'0 0.1
2018-Feb-15 20:30N 39°09' W 075°14'0 0.6
2018-Feb-15 20:00N 39°09' W 075°14'1 1.6
2018-Feb-15 19:29N 39°08' W 075°14'1 1.6
2018-Feb-15 19:00N 39°09' W 075°14'0 0.5
2018-Feb-15 18:30N 39°08' W 075°14'1 1.2
2018-Feb-15 18:00N 39°08' W 075°14'0 0.0
2018-Feb-15 17:29N 39°08' W 075°14'1 3.0
2018-Feb-15 17:00N 39°09' W 075°15'0 0.4
2018-Feb-15 16:06N 39°09' W 075°14'0 3.8
2018-Feb-15 16:00N 39°09' W 075°15'0 0.1
2018-Feb-15 15:14N 39°09' W 075°15'0 0.9
2018-Feb-15 14:59N 39°09' W 075°14'0 0.4
2018-Feb-15 14:19N 39°09' W 075°15'0 1.1
2018-Feb-15 13:56N 39°09' W 075°14'0 0.2
2018-Feb-15 13:30N 39°09' W 075°14'0 0.4
2018-Feb-15 13:00N 39°09' W 075°14'0 0.4
2018-Feb-15 12:30N 39°09' W 075°15'0 0.1
2018-Feb-15 12:01N 39°09' W 075°15'0 0.4
2018-Feb-15 11:25N 39°09' W 075°14'0 0.6
2018-Feb-15 10:56N 39°09' W 075°14'0 0.0
2018-Feb-15 10:26N 39°09' W 075°14'0 0.5
2018-Feb-15 09:59N 39°09' W 075°14'0 0.2
2018-Feb-15 09:31N 39°09' W 075°14'0 0.8
2018-Feb-15 09:01N 39°09' W 075°15'0 0.4
2018-Feb-15 08:28N 39°09' W 075°15'1 1.2
2018-Feb-15 07:57N 39°09' W 075°14'0 0.5
2018-Feb-15 07:24N 39°08' W 075°14'0 0.4
2018-Feb-15 06:57N 39°09' W 075°14'0 0.1
2018-Feb-15 06:30N 39°09' W 075°14'1 1.3
2018-Feb-15 06:00N 39°09' W 075°15'1 1.3
2018-Feb-15 05:30N 39°09' W 075°14'0 0.8
2018-Feb-15 04:56N 39°09' W 075°15'0 0.2
2018-Feb-15 04:31N 39°09' W 075°14'0 0.7
2018-Feb-15 04:00N 39°09' W 075°15'0 0.7
2018-Feb-15 03:30N 39°09' W 075°14'0 0.5
2018-Feb-15 03:00N 39°09' W 075°15'0 0.7
2018-Feb-15 02:30N 39°09' W 075°14'0 0.7
2018-Feb-15 02:00N 39°09' W 075°15'0 0.7
2018-Feb-15 01:29N 39°09' W 075°14'0 0.7
2018-Feb-15 00:59N 39°09' W 075°15'0 0.6
2018-Feb-15 00:29N 39°09' W 075°14'0 0.5
2018-Feb-14 23:59N 39°09' W 075°15'0 0.7
2018-Feb-14 23:26N 39°09' W 075°14'1 1.6
2018-Feb-14 22:50N 39°08' W 075°14'0 0.2
2018-Feb-14 22:24N 39°08' W 075°14'1 1.6
2018-Feb-14 22:00N 39°08' W 075°14'0 0.7
2018-Feb-14 21:18N 39°08' W 075°14'0 0.5
2018-Feb-14 20:59N 39°08' W 075°14'0 0.7
2018-Feb-14 20:29N 39°08' W 075°14'0 0.9
2018-Feb-14 19:59N 39°08' W 075°14'0 0.0
2018-Feb-14 19:26N 39°08' W 075°14'0 0.3
2018-Feb-14 19:00N 39°08' W 075°14'1 1.8
2018-Feb-14 18:30N 39°09' W 075°14'0 0.2
2018-Feb-14 17:56N 39°09' W 075°14'0 1.0
2018-Feb-14 17:30N 39°09' W 075°15'0 0.8
2018-Feb-14 16:55N 39°09' W 075°14'1 1.6
2018-Feb-14 16:30N 39°09' W 075°15'0 0.4
2018-Feb-14 16:00N 39°09' W 075°15'0 0.1
2018-Feb-14 15:30N 39°09' W 075°15'0 0.1
2018-Feb-14 15:00N 39°09' W 075°15'1 1.2
2018-Feb-14 14:31N 39°09' W 075°14'0 0.3
2018-Feb-14 14:00N 39°09' W 075°14'0 0.0
2018-Feb-14 13:30N 39°09' W 075°14'0 0.6
2018-Feb-14 13:00N 39°09' W 075°14'0 0.3
2018-Feb-14 12:29N 39°09' W 075°14'0 0.3
2018-Feb-14 11:57N 39°09' W 075°14'1 1.5
2018-Feb-14 11:30N 39°09' W 075°15'0 0.3
2018-Feb-14 11:00N 39°09' W 075°15'1 1.1
2018-Feb-14 10:29N 39°09' W 075°14'0 0.9
2018-Feb-14 09:58N 39°09' W 075°15'0 1.1
2018-Feb-14 09:30N 39°09' W 075°14'0 0.3
2018-Feb-14 08:56N 39°09' W 075°14'0 0.2
2018-Feb-14 08:30N 39°09' W 075°14'0 0.2
2018-Feb-14 07:58N 39°09' W 075°14'1 1.3
2018-Feb-14 07:31N 39°09' W 075°15'1 1.2
2018-Feb-14 06:58N 39°09' W 075°14'1 1.3
2018-Feb-14 06:30N 39°09' W 075°15'0 0.7
2018-Feb-14 06:00N 39°09' W 075°15'0 0.3
2018-Feb-14 05:26N 39°09' W 075°14'1 1.3
2018-Feb-14 05:00N 39°09' W 075°15'0 0.1
2018-Feb-14 04:31N 39°09' W 075°15'0 0.8
2018-Feb-14 03:57N 39°09' W 075°14'4 7.0
2018-Feb-14 03:26N 39°12' W 075°17'3 6.7
2018-Feb-14 03:00N 39°14' W 075°19'3 6.0
2018-Feb-14 02:30N 39°17' W 075°22'3 5.6
2018-Feb-14 02:00N 39°19' W 075°24'3 5.2
2018-Feb-14 01:30N 39°21' W 075°26'2 4.3
2018-Feb-14 01:00N 39°22' W 075°28'2 4.4
2018-Feb-14 00:30N 39°24' W 075°30'2 4.2
2018-Feb-14 00:01N 39°25' W 075°32'2 4.8
2018-Feb-13 23:31N 39°27' W 075°34'3 5.3
2018-Feb-13 23:00N 39°30' W 075°33'3 5.3
2018-Feb-13 22:30N 39°33' W 075°32'2 4.6
2018-Feb-13 22:00N 39°34' W 075°30'1 1.6
2018-Feb-13 21:30N 39°34' W 075°29'0 0.0
2018-Feb-13 21:00N 39°34' W 075°29'0 0.0
2018-Feb-13 20:29N 39°34' W 075°29'0 0.0
2018-Feb-13 20:01N 39°34' W 075°29'0 0.0
2018-Feb-13 19:30N 39°34' W 075°29'0 0.0
2018-Feb-13 19:01N 39°34' W 075°29'0 0.0
2018-Feb-13 18:31N 39°34' W 075°29'0 0.0
2018-Feb-13 18:00N 39°34' W 075°29'0 0.0
2018-Feb-13 17:31N 39°34' W 075°29'0 0.0
2018-Feb-13 17:01N 39°34' W 075°29'0 0.0
2018-Feb-13 16:30N 39°34' W 075°29'0 0.0
2018-Feb-13 16:00N 39°34' W 075°29'0 0.0
2018-Feb-13 15:30N 39°34' W 075°29'0 0.0
2018-Feb-13 15:00N 39°34' W 075°29'0 0.0
2018-Feb-13 14:30N 39°34' W 075°29'0 0.0
2018-Feb-13 14:00N 39°34' W 075°29'0 0.0
2018-Feb-13 13:31N 39°34' W 075°29'0 0.0
2018-Feb-13 13:00N 39°34' W 075°29'0 0.0
2018-Feb-13 12:30N 39°34' W 075°29'0 0.0
2018-Feb-13 12:00N 39°34' W 075°29'0 0.0
2018-Feb-13 11:30N 39°34' W 075°29'0 0.0
2018-Feb-13 11:01N 39°34' W 075°29'0 0.0
2018-Feb-13 10:30N 39°34' W 075°29'0 0.0
2018-Feb-13 10:00N 39°34' W 075°29'0 0.0
2018-Feb-13 09:30N 39°34' W 075°29'0 0.0
2018-Feb-13 09:01N 39°34' W 075°29'0 0.0
2018-Feb-13 08:30N 39°34' W 075°29'0 0.0
2018-Feb-13 08:00N 39°34' W 075°29'0 0.0
2018-Feb-13 07:30N 39°34' W 075°29'0 0.0
2018-Feb-13 07:00N 39°34' W 075°29'0 0.0
2018-Feb-13 06:30N 39°34' W 075°29'0 0.0
2018-Feb-13 06:00N 39°34' W 075°29'0 0.0
2018-Feb-13 05:30N 39°34' W 075°29'0 0.0
2018-Feb-13 05:00N 39°34' W 075°29'0 0.0
2018-Feb-13 04:30N 39°34' W 075°29'0 0.0
2018-Feb-13 03:59N 39°34' W 075°29'0 0.0
2018-Feb-13 03:30N 39°34' W 075°29'0 0.0
2018-Feb-13 03:00N 39°34' W 075°29'0 0.5
2018-Feb-13 02:30N 39°35' W 075°29'0 0.0
2018-Feb-13 02:00N 39°35' W 075°29'0 0.0
2018-Feb-13 01:30N 39°35' W 075°29'0 0.0
2018-Feb-13 01:00N 39°35' W 075°29'0 0.0
2018-Feb-13 00:31N 39°35' W 075°29'0 0.0
2018-Feb-13 00:00N 39°35' W 075°29'0 0.0
2018-Feb-12 23:31N 39°35' W 075°29'0 0.0
2018-Feb-12 23:01N 39°35' W 075°29'2 3.7
2018-Feb-12 22:30N 39°34' W 075°31'3 5.4
2018-Feb-12 22:00N 39°36' W 075°34'5 9.4
2018-Feb-12 21:30N 39°40' W 075°32'611.1
2018-Feb-12 21:00N 39°45' W 075°29'510.0
2018-Feb-12 20:30N 39°49' W 075°24'510.1
2018-Feb-12 20:01N 39°51' W 075°18'510.4
2018-Feb-12 19:30N 39°53' W 075°12'1 1.3
2018-Feb-12 19:01N 39°53' W 075°12'0 0.0
2018-Feb-12 18:30N 39°53' W 075°12'0 0.0
2018-Feb-12 18:00N 39°53' W 075°12'0 0.0
2018-Feb-12 17:30N 39°53' W 075°12'0 0.0
2018-Feb-12 17:00N 39°53' W 075°12'0 0.0
2018-Feb-12 16:31N 39°53' W 075°12'0 0.0
2018-Feb-12 16:00N 39°53' W 075°12'0 0.0
2018-Feb-12 15:30N 39°53' W 075°12'0 0.0
2018-Feb-12 15:00N 39°53' W 075°12'0 0.0
2018-Feb-12 14:31N 39°53' W 075°12'0 0.0
2018-Feb-12 14:01N 39°53' W 075°12'0 0.0
2018-Feb-12 13:31N 39°53' W 075°12'0 0.0
2018-Feb-12 13:00N 39°53' W 075°12'0 0.0
2018-Feb-12 12:31N 39°53' W 075°12'2 3.3
2018-Feb-12 12:01N 39°52' W 075°13'4 9.0
2018-Feb-12 11:31N 39°51' W 075°18'4 8.4
2018-Feb-12 11:01N 39°49' W 075°23'4 7.2
2018-Feb-12 10:31N 39°47' W 075°27'4 8.3
2018-Feb-12 10:00N 39°43' W 075°30'4 7.9
2018-Feb-12 09:30N 39°40' W 075°32'4 7.3
2018-Feb-12 09:00N 39°37' W 075°34'4 7.6
2018-Feb-12 08:30N 39°33' W 075°33'3 5.5
2018-Feb-12 08:00N 39°34' W 075°29'0 0.7
2018-Feb-12 07:30N 39°35' W 075°29'0 0.5
2018-Feb-12 07:00N 39°34' W 075°29'0 0.0
2018-Feb-11 15:12N 39°34' W 075°29'0 0.0
2018-Feb-11 15:00N 39°34' W 075°29'0 0.0
2018-Feb-11 14:30N 39°34' W 075°29'0 0.0
2018-Feb-11 14:00N 39°34' W 075°29'0 0.0
2018-Feb-11 13:30N 39°34' W 075°29'0 0.0
2018-Feb-11 13:01N 39°34' W 075°29'0 0.0
2018-Feb-11 12:30N 39°34' W 075°29'0 0.0
2018-Feb-11 12:00N 39°34' W 075°29'0 0.0
2018-Feb-11 11:30N 39°34' W 075°29'0 0.0
2018-Feb-11 11:01N 39°34' W 075°29'0 0.0
2018-Feb-11 10:30N 39°34' W 075°29'0 0.0
2018-Feb-11 10:00N 39°34' W 075°29'0 0.0
2018-Feb-11 09:30N 39°34' W 075°29'0 0.0
2018-Feb-11 09:01N 39°34' W 075°29'0 0.0
2018-Feb-11 08:30N 39°34' W 075°29'0 0.0
2018-Feb-11 08:00N 39°34' W 075°29'0 0.0
2018-Feb-11 07:30N 39°34' W 075°29'0 0.0
2018-Feb-11 07:00N 39°34' W 075°29'0 0.0
2018-Feb-11 06:30N 39°34' W 075°29'0 0.0
2018-Feb-11 06:00N 39°34' W 075°29'0 0.0
2018-Feb-11 05:31N 39°34' W 075°29'0 0.0
2018-Feb-11 05:01N 39°34' W 075°29'0 0.0
2018-Feb-11 04:30N 39°34' W 075°29'0 0.0
2018-Feb-11 04:00N 39°34' W 075°29'0 0.0
2018-Feb-11 03:30N 39°34' W 075°29'0 0.0
2018-Feb-11 03:00N 39°34' W 075°29'0 0.0
2018-Feb-11 02:30N 39°34' W 075°29'0 0.0
2018-Feb-11 02:00N 39°34' W 075°29'2 3.5
2018-Feb-11 01:30N 39°34' W 075°31'3 6.9
2018-Feb-11 01:00N 39°31' W 075°33'4 7.2
2018-Feb-11 00:30N 39°27' W 075°33'4 7.6
2018-Feb-11 00:00N 39°24' W 075°30'4 7.6
2018-Feb-10 23:30N 39°21' W 075°26'4 7.3
2018-Feb-10 23:00N 39°18' W 075°24'4 7.2
2018-Feb-10 22:30N 39°16' W 075°20'4 7.1
2018-Feb-10 21:59N 39°13' W 075°17'3 7.0
2018-Feb-10 21:31N 39°10' W 075°15'1 2.2
2018-Feb-10 21:01N 39°09' W 075°14'0 0.5
2018-Feb-10 20:30N 39°09' W 075°14'0 0.4
2018-Feb-10 20:00N 39°09' W 075°14'0 0.8
2018-Feb-10 19:31N 39°09' W 075°15'0 0.6
2018-Feb-10 18:59N 39°09' W 075°14'0 0.7
2018-Feb-10 18:30N 39°09' W 075°15'0 0.3
2018-Feb-10 17:55N 39°09' W 075°14'0 0.6
2018-Feb-10 17:23N 39°09' W 075°14'0 0.2
2018-Feb-10 16:53N 39°08' W 075°14'0 0.8
2018-Feb-10 16:23N 39°09' W 075°14'1 1.4
2018-Feb-10 15:54N 39°08' W 075°14'1 1.5
2018-Feb-10 15:30N 39°09' W 075°14'1 2.4
2018-Feb-10 14:59N 39°10' W 075°15'2 5.2
2018-Feb-10 14:30N 39°12' W 075°17'1 1.3
2018-Feb-10 14:00N 39°13' W 075°17'0 0.0
2018-Feb-10 13:30N 39°12' W 075°17'0 0.0
2018-Feb-10 13:00N 39°12' W 075°17'0 0.0
2018-Feb-10 12:30N 39°12' W 075°17'0 0.6
2018-Feb-10 12:01N 39°13' W 075°17'0 0.8
2018-Feb-10 11:30N 39°13' W 075°17'1 1.1
2018-Feb-10 11:01N 39°13' W 075°17'0 0.0
2018-Feb-10 10:30N 39°13' W 075°17'0 0.6
2018-Feb-10 10:00N 39°13' W 075°17'0 0.1
2018-Feb-10 09:29N 39°13' W 075°17'0 0.4
2018-Feb-10 09:00N 39°13' W 075°18'0 0.3
2018-Feb-10 08:29N 39°13' W 075°18'0 1.0
2018-Feb-10 08:00N 39°13' W 075°17'0 0.1
2018-Feb-10 07:29N 39°13' W 075°17'0 0.7
2018-Feb-10 07:00N 39°13' W 075°17'0 0.1
2018-Feb-10 06:30N 39°13' W 075°18'0 0.8
2018-Feb-10 06:00N 39°13' W 075°17'0 0.2
2018-Feb-10 05:29N 39°13' W 075°17'0 0.9
2018-Feb-10 05:00N 39°13' W 075°18'0 0.3
2018-Feb-10 04:31N 39°13' W 075°18'1 1.4
2018-Feb-10 04:01N 39°12' W 075°17'0 0.9
2018-Feb-10 03:30N 39°13' W 075°17'0 0.2
2018-Feb-10 03:00N 39°13' W 075°17'0 0.2
2018-Feb-10 02:30N 39°13' W 075°17'0 0.4
2018-Feb-10 02:00N 39°13' W 075°18'0 0.1
2018-Feb-10 01:31N 39°13' W 075°18'0 0.5
2018-Feb-10 01:00N 39°13' W 075°17'0 0.4
2018-Feb-10 00:30N 39°13' W 075°17'0 0.6
2018-Feb-10 00:00N 39°13' W 075°17'0 0.8
2018-Feb-09 23:30N 39°13' W 075°18'1 1.3
2018-Feb-09 23:00N 39°12' W 075°17'1 3.4
2018-Feb-09 22:46N 39°13' W 075°18'0 0.3
2018-Feb-09 21:01N 39°14' W 075°18'1 0.4
2018-Feb-09 18:00N 39°12' W 075°17'1 1.3
2018-Feb-09 17:30N 39°13' W 075°18'1 1.0
2018-Feb-09 17:01N 39°13' W 075°18'1 1.5
2018-Feb-09 16:30N 39°13' W 075°18'1 0.5
2018-Feb-09 15:30N 39°13' W 075°18'1 0.7
2018-Feb-09 14:30N 39°13' W 075°17'0 0.0
2018-Feb-09 14:00N 39°13' W 075°17'  

Dump ship's entire track history